Vremea acum in Costesti - Romania

Vrei sa afli care e starea vremii acum in Arges - Romania? Dorim sa iti furnizam starea vremii pentru Arges - Romania. Starea vremii Arges - Romania pentru astazi.

Vremea acum in Costesti

Temperatura: 23.6 °C

Se simte ca: 25 °C
Innorat: 6 %
Precipitatii: 0 %
Presiune atmosferica: 1016 hPa
Umiditate: 51%
Vizibilitate: 20 km
Vantul bate din SSE cu 7.9 km/h

Evolutia vremii in Costesti pe ore

Ora: 13:00
Parțial noros
Temperatura: 24.6°C
Sansa de precipitatii: 0%
Ora Descriere Temp Se simte Precipitatii Umiditate Vant
00:00Parțial noros14.2°14.1°0%86%SW 6.8 KM/H
01:00Parțial noros13.6°13.3°0%85%ESE 7.9 KM/H
02:00Parțial noros13°12.4°0%84%NNE 8.6 KM/H
03:00Parțial noros13°12.8°0%84%NNE 7.2 KM/H
04:00Parțial noros13.1°13.1°0%85%NNE 5.8 KM/H
05:00Parțial noros13.1°13.5°0%85%NNE 4.3 KM/H
06:00Parțial noros15.4°15.6°0%79%NNE 3.6 KM/H
07:00Parțial noros17.6°17.8°0%72%NE 3.2 KM/H
08:00Parțial noros19.9°19.9°0%66%NE 2.5 KM/H
09:00Parțial noros21.1°21.1°0%61%E 4.3 KM/H
10:00Parțial noros22.4°23.3°0%56%ESE 6.1 KM/H
11:00Parțial noros23.6°25°0%51%SSE 7.9 KM/H
12:00Parțial noros24.1°25.3°0%50%SSE 8.3 KM/H
13:00Parțial noros24.6°25.5°0%48%S 8.3 KM/H
14:00Parțial noros25.1°25.8°0%47%S 8.6 KM/H
15:00Parțial noros25.1°25.8°0%47%S 7.9 KM/H
16:00Parțial noros25.2°25.9°0%48%S 7.2 KM/H
17:00Parțial noros25.2°25.9°0%49%SSW 6.5 KM/H
18:00Parțial noros23.9°25°0%55%SSE 5 KM/H
19:00Parțial noros22.5°24.1°0%61%SE 3.2 KM/H
20:00Parțial noros21.2°21.2°0%67%ESE 1.8 KM/H
21:00Parțial noros19.8°19.8°0%69%ENE 3.2 KM/H
22:00Parțial noros18.5°18.5°0%72%NE 4.3 KM/H
23:00Parțial noros17.1°17.1°0%74%NNE 5.8 KM/H